sensor_id;sensor_type;location;lat;lon;timestamp;P1;durP1;ratioP1;P2;durP2;ratioP2
57047;SDS011;42934;54.294;18.598;2022-08-30T00:02:00;2.42;;;0.55;;
57047;SDS011;42934;54.294;18.598;2022-08-30T00:04:29;0.80;;;0.40;;
57047;SDS011;42934;54.294;18.598;2022-08-30T00:06:58;1.67;;;0.50;;
57047;SDS011;42934;54.294;18.598;2022-08-30T00:09:30;1.63;;;0.65;;
57047;SDS011;42934;54.294;18.598;2022-08-30T00:12:00;2.25;;;0.50;;
57047;SDS011;42934;54.294;18.598;2022-08-30T00:14:31;3.05;;;0.77;;
57047;SDS011;42934;54.294;18.598;2022-08-30T00:17:01;2.25;;;0.60;;
57047;SDS011;42934;54.294;18.598;2022-08-30T00:19:30;1.15;;;0.60;;
57047;SDS011;42934;54.294;18.598;2022-08-30T00:22:00;1.73;;;0.65;;
57047;SDS011;42934;54.294;18.598;2022-08-30T00:24:30;2.97;;;0.70;;
57047;SDS011;42934;54.294;18.598;2022-08-30T00:27:00;2.38;;;0.70;;
57047;SDS011;42934;54.294;18.598;2022-08-30T00:29:29;2.53;;;0.60;;
57047;SDS011;42934;54.294;18.598;2022-08-30T00:32:00;1.83;;;0.50;;
57047;SDS011;42934;54.294;18.598;2022-08-30T00:34:30;1.83;;;0.70;;
57047;SDS011;42934;54.294;18.598;2022-08-30T00:37:00;1.90;;;0.50;;
57047;SDS011;42934;54.294;18.598;2022-08-30T00:39:29;1.77;;;0.80;;
57047;SDS011;42934;54.294;18.598;2022-08-30T00:41:59;2.40;;;0.60;;
57047;SDS011;42934;54.294;18.598;2022-08-30T00:44:28;3.10;;;0.70;;
57047;SDS011;42934;54.294;18.598;2022-08-30T00:46:59;2.13;;;0.68;;
57047;SDS011;42934;54.294;18.598;2022-08-30T00:49:29;2.85;;;0.50;;
57047;SDS011;42934;54.294;18.598;2022-08-30T00:52:00;1.30;;;0.40;;
57047;SDS011;42934;54.294;18.598;2022-08-30T00:54:32;1.70;;;0.40;;
57047;SDS011;42934;54.294;18.598;2022-08-30T00:57:03;0.60;;;0.40;;
57047;SDS011;42934;54.294;18.598;2022-08-30T00:59:33;2.95;;;0.55;;
57047;SDS011;42934;54.294;18.598;2022-08-30T01:02:05;1.10;;;0.50;;
57047;SDS011;42934;54.294;18.598;2022-08-30T01:04:36;1.63;;;0.40;;
57047;SDS011;42934;54.294;18.598;2022-08-30T01:07:09;0.60;;;0.40;;
57047;SDS011;42934;54.294;18.598;2022-08-30T01:09:39;1.08;;;0.30;;
57047;SDS011;42934;54.294;18.598;2022-08-30T01:12:09;1.45;;;0.40;;
57047;SDS011;42934;54.294;18.598;2022-08-30T01:14:43;1.85;;;0.40;;
57047;SDS011;42934;54.294;18.598;2022-08-30T01:17:15;2.08;;;0.40;;
57047;SDS011;42934;54.294;18.598;2022-08-30T01:19:50;1.15;;;0.30;;
57047;SDS011;42934;54.294;18.598;2022-08-30T01:22:25;0.95;;;0.40;;
57047;SDS011;42934;54.294;18.598;2022-08-30T01:25:00;0.75;;;0.40;;
57047;SDS011;42934;54.294;18.598;2022-08-30T01:27:34;0.93;;;0.40;;
57047;SDS011;42934;54.294;18.598;2022-08-30T01:30:07;1.80;;;0.50;;
57047;SDS011;42934;54.294;18.598;2022-08-30T01:32:38;1.15;;;0.50;;
57047;SDS011;42934;54.294;18.598;2022-08-30T01:35:10;1.70;;;0.30;;
57047;SDS011;42934;54.294;18.598;2022-08-30T01:37:41;0.73;;;0.30;;
57047;SDS011;42934;54.294;18.598;2022-08-30T01:40:14;1.63;;;0.38;;
57047;SDS011;42934;54.294;18.598;2022-08-30T01:42:44;3.13;;;0.52;;
57047;SDS011;42934;54.294;18.598;2022-08-30T01:45:14;2.00;;;0.52;;
57047;SDS011;42934;54.294;18.598;2022-08-30T01:47:44;1.88;;;0.40;;
57047;SDS011;42934;54.294;18.598;2022-08-30T01:50:13;1.77;;;0.50;;
57047;SDS011;42934;54.294;18.598;2022-08-30T01:52:43;2.65;;;0.47;;
57047;SDS011;42934;54.294;18.598;2022-08-30T01:55:14;2.38;;;0.50;;
57047;SDS011;42934;54.294;18.598;2022-08-30T01:57:44;1.30;;;0.30;;
57047;SDS011;42934;54.294;18.598;2022-08-30T02:00:15;1.55;;;0.40;;
57047;SDS011;42934;54.294;18.598;2022-08-30T02:02:45;1.55;;;0.47;;
57047;SDS011;42934;54.294;18.598;2022-08-30T02:05:15;1.70;;;0.50;;
57047;SDS011;42934;54.294;18.598;2022-08-30T02:07:44;2.70;;;0.52;;
57047;SDS011;42934;54.294;18.598;2022-08-30T02:10:15;1.77;;;0.50;;
57047;SDS011;42934;54.294;18.598;2022-08-30T02:12:44;3.20;;;0.50;;
57047;SDS011;42934;54.294;18.598;2022-08-30T02:15:14;2.67;;;0.60;;
57047;SDS011;42934;54.294;18.598;2022-08-30T02:17:44;2.95;;;0.80;;
57047;SDS011;42934;54.294;18.598;2022-08-30T02:20:14;7.13;;;0.93;;
57047;SDS011;42934;54.294;18.598;2022-08-30T02:22:43;3.17;;;0.70;;
57047;SDS011;42934;54.294;18.598;2022-08-30T02:25:17;4.00;;;0.77;;
57047;SDS011;42934;54.294;18.598;2022-08-30T02:27:47;2.30;;;0.75;;
57047;SDS011;42934;54.294;18.598;2022-08-30T02:30:16;2.40;;;0.60;;
57047;SDS011;42934;54.294;18.598;2022-08-30T02:32:46;2.63;;;1.30;;
57047;SDS011;42934;54.294;18.598;2022-08-30T02:35:15;1.33;;;0.57;;
57047;SDS011;42934;54.294;18.598;2022-08-30T02:37:45;2.38;;;0.60;;
57047;SDS011;42934;54.294;18.598;2022-08-30T02:40:14;4.13;;;0.60;;
57047;SDS011;42934;54.294;18.598;2022-08-30T02:42:46;1.85;;;0.50;;
57047;SDS011;42934;54.294;18.598;2022-08-30T02:45:15;2.83;;;0.60;;
57047;SDS011;42934;54.294;18.598;2022-08-30T02:47:45;4.28;;;0.70;;
57047;SDS011;42934;54.294;18.598;2022-08-30T02:50:15;2.17;;;0.68;;
57047;SDS011;42934;54.294;18.598;2022-08-30T02:52:45;2.35;;;0.57;;
57047;SDS011;42934;54.294;18.598;2022-08-30T02:55:15;2.05;;;0.60;;
57047;SDS011;42934;54.294;18.598;2022-08-30T02:57:46;2.72;;;0.70;;
57047;SDS011;42934;54.294;18.598;2022-08-30T03:00:16;4.97;;;0.80;;
57047;SDS011;42934;54.294;18.598;2022-08-30T03:02:47;3.13;;;0.80;;
57047;SDS011;42934;54.294;18.598;2022-08-30T03:05:17;2.28;;;0.70;;
57047;SDS011;42934;54.294;18.598;2022-08-30T03:07:47;2.75;;;0.57;;
57047;SDS011;42934;54.294;18.598;2022-08-30T03:10:18;1.85;;;0.73;;
57047;SDS011;42934;54.294;18.598;2022-08-30T03:12:47;2.50;;;0.60;;
57047;SDS011;42934;54.294;18.598;2022-08-30T03:15:17;3.03;;;0.70;;
57047;SDS011;42934;54.294;18.598;2022-08-30T03:17:47;0.88;;;0.50;;
57047;SDS011;42934;54.294;18.598;2022-08-30T03:20:17;1.17;;;0.63;;
57047;SDS011;42934;54.294;18.598;2022-08-30T03:22:48;3.90;;;0.85;;
57047;SDS011;42934;54.294;18.598;2022-08-30T03:25:19;1.23;;;0.50;;
57047;SDS011;42934;54.294;18.598;2022-08-30T03:27:49;3.25;;;0.65;;
57047;SDS011;42934;54.294;18.598;2022-08-30T03:30:19;2.00;;;0.65;;
57047;SDS011;42934;54.294;18.598;2022-08-30T03:32:48;3.60;;;0.50;;
57047;SDS011;42934;54.294;18.598;2022-08-30T03:35:18;1.92;;;0.65;;
57047;SDS011;42934;54.294;18.598;2022-08-30T03:37:47;0.77;;;0.40;;
57047;SDS011;42934;54.294;18.598;2022-08-30T03:40:23;1.35;;;0.50;;
57047;SDS011;42934;54.294;18.598;2022-08-30T03:42:54;1.00;;;0.30;;
57047;SDS011;42934;54.294;18.598;2022-08-30T03:45:23;2.22;;;0.40;;
57047;SDS011;42934;54.294;18.598;2022-08-30T03:47:53;1.15;;;0.50;;
57047;SDS011;42934;54.294;18.598;2022-08-30T03:50:22;0.65;;;0.40;;
57047;SDS011;42934;54.294;18.598;2022-08-30T03:52:52;2.70;;;0.50;;
57047;SDS011;42934;54.294;18.598;2022-08-30T03:55:21;2.67;;;0.63;;
57047;SDS011;42934;54.294;18.598;2022-08-30T03:57:54;2.78;;;0.63;;
57047;SDS011;42934;54.294;18.598;2022-08-30T04:00:24;1.20;;;0.50;;
57047;SDS011;42934;54.294;18.598;2022-08-30T04:02:53;1.42;;;0.63;;
57047;SDS011;42934;54.294;18.598;2022-08-30T04:05:23;2.90;;;0.65;;
57047;SDS011;42934;54.294;18.598;2022-08-30T04:07:53;2.17;;;0.60;;
57047;SDS011;42934;54.294;18.598;2022-08-30T04:10:23;2.05;;;0.70;;
57047;SDS011;42934;54.294;18.598;2022-08-30T04:12:53;0.82;;;0.50;;
57047;SDS011;42934;54.294;18.598;2022-08-30T04:15:22;1.48;;;0.50;;
57047;SDS011;42934;54.294;18.598;2022-08-30T04:17:52;2.90;;;0.50;;
57047;SDS011;42934;54.294;18.598;2022-08-30T04:20:21;2.05;;;0.50;;
57047;SDS011;42934;54.294;18.598;2022-08-30T04:22:51;0.95;;;0.45;;
57047;SDS011;42934;54.294;18.598;2022-08-30T04:25:20;2.60;;;0.70;;
57047;SDS011;42934;54.294;18.598;2022-08-30T04:27:51;2.10;;;0.68;;
57047;SDS011;42934;54.294;18.598;2022-08-30T04:30:21;3.45;;;0.77;;
57047;SDS011;42934;54.294;18.598;2022-08-30T04:32:51;1.80;;;0.50;;
57047;SDS011;42934;54.294;18.598;2022-08-30T04:35:24;1.35;;;0.60;;
57047;SDS011;42934;54.294;18.598;2022-08-30T04:37:54;1.25;;;0.50;;
57047;SDS011;42934;54.294;18.598;2022-08-30T04:40:23;2.10;;;0.50;;
57047;SDS011;42934;54.294;18.598;2022-08-30T04:42:54;1.88;;;0.50;;
57047;SDS011;42934;54.294;18.598;2022-08-30T04:45:26;1.75;;;0.50;;
57047;SDS011;42934;54.294;18.598;2022-08-30T04:47:55;1.75;;;0.60;;
57047;SDS011;42934;54.294;18.598;2022-08-30T04:50:24;1.07;;;0.60;;
57047;SDS011;42934;54.294;18.598;2022-08-30T04:52:54;2.30;;;0.65;;
57047;SDS011;42934;54.294;18.598;2022-08-30T04:55:23;5.32;;;0.70;;
57047;SDS011;42934;54.294;18.598;2022-08-30T04:57:55;0.52;;;0.50;;
57047;SDS011;42934;54.294;18.598;2022-08-30T05:00:25;1.17;;;0.50;;
57047;SDS011;42934;54.294;18.598;2022-08-30T05:02:54;3.15;;;0.70;;
57047;SDS011;42934;54.294;18.598;2022-08-30T05:05:24;1.70;;;0.60;;
57047;SDS011;42934;54.294;18.598;2022-08-30T05:08:19;3.72;;;0.73;;
57047;SDS011;42934;54.294;18.598;2022-08-30T05:10:50;1.25;;;0.60;;
57047;SDS011;42934;54.294;18.598;2022-08-30T05:13:22;3.35;;;0.65;;
57047;SDS011;42934;54.294;18.598;2022-08-30T05:16:02;2.15;;;0.70;;
57047;SDS011;42934;54.294;18.598;2022-08-30T05:18:34;1.98;;;0.77;;
57047;SDS011;42934;54.294;18.598;2022-08-30T05:23:34;3.10;;;1.08;;
57047;SDS011;42934;54.294;18.598;2022-08-30T05:26:04;2.22;;;0.70;;
57047;SDS011;42934;54.294;18.598;2022-08-30T05:28:36;0.88;;;0.57;;
57047;SDS011;42934;54.294;18.598;2022-08-30T05:31:11;4.78;;;0.77;;
57047;SDS011;42934;54.294;18.598;2022-08-30T05:33:42;1.80;;;0.70;;
57047;SDS011;42934;54.294;18.598;2022-08-30T05:36:13;3.55;;;0.70;;
57047;SDS011;42934;54.294;18.598;2022-08-30T05:38:44;2.33;;;0.70;;
57047;SDS011;42934;54.294;18.598;2022-08-30T05:41:16;2.65;;;0.60;;
57047;SDS011;42934;54.294;18.598;2022-08-30T05:43:57;1.45;;;0.60;;
57047;SDS011;42934;54.294;18.598;2022-08-30T05:46:27;2.80;;;0.73;;
57047;SDS011;42934;54.294;18.598;2022-08-30T05:49:04;2.65;;;0.63;;
57047;SDS011;42934;54.294;18.598;2022-08-30T05:51:35;4.85;;;1.00;;
57047;SDS011;42934;54.294;18.598;2022-08-30T05:54:09;1.83;;;0.80;;
57047;SDS011;42934;54.294;18.598;2022-08-30T05:56:41;4.43;;;0.82;;
57047;SDS011;42934;54.294;18.598;2022-08-30T05:59:13;3.88;;;0.85;;
57047;SDS011;42934;54.294;18.598;2022-08-30T06:01:44;1.90;;;0.90;;
57047;SDS011;42934;54.294;18.598;2022-08-30T06:04:14;5.22;;;1.10;;
57047;SDS011;42934;54.294;18.598;2022-08-30T06:09:14;3.35;;;0.80;;
57047;SDS011;42934;54.294;18.598;2022-08-30T06:11:43;2.00;;;0.70;;
57047;SDS011;42934;54.294;18.598;2022-08-30T06:14:15;1.40;;;0.80;;
57047;SDS011;42934;54.294;18.598;2022-08-30T06:16:45;3.70;;;0.90;;
57047;SDS011;42934;54.294;18.598;2022-08-30T06:19:15;2.40;;;0.70;;
57047;SDS011;42934;54.294;18.598;2022-08-30T06:21:46;3.35;;;0.70;;
57047;SDS011;42934;54.294;18.598;2022-08-30T06:24:16;3.97;;;0.80;;
57047;SDS011;42934;54.294;18.598;2022-08-30T06:27:02;2.88;;;0.90;;
57047;SDS011;42934;54.294;18.598;2022-08-30T06:29:33;2.95;;;0.90;;
57047;SDS011;42934;54.294;18.598;2022-08-30T06:32:02;2.75;;;0.75;;
57047;SDS011;42934;54.294;18.598;2022-08-30T06:34:32;3.83;;;0.75;;
57047;SDS011;42934;54.294;18.598;2022-08-30T06:37:01;4.15;;;0.80;;
57047;SDS011;42934;54.294;18.598;2022-08-30T06:39:31;2.35;;;0.70;;
57047;SDS011;42934;54.294;18.598;2022-08-30T06:42:00;3.90;;;0.70;;
57047;SDS011;42934;54.294;18.598;2022-08-30T06:44:33;2.08;;;0.90;;
57047;SDS011;42934;54.294;18.598;2022-08-30T06:47:02;4.07;;;0.90;;
57047;SDS011;42934;54.294;18.598;2022-08-30T06:49:32;3.80;;;1.00;;
57047;SDS011;42934;54.294;18.598;2022-08-30T06:52:02;2.15;;;1.00;;
57047;SDS011;42934;54.294;18.598;2022-08-30T06:54:32;8.13;;;0.77;;
57047;SDS011;42934;54.294;18.598;2022-08-30T06:57:01;2.08;;;0.55;;
57047;SDS011;42934;54.294;18.598;2022-08-30T06:59:31;3.22;;;1.00;;
57047;SDS011;42934;54.294;18.598;2022-08-30T07:02:02;2.50;;;1.10;;
57047;SDS011;42934;54.294;18.598;2022-08-30T07:04:32;3.22;;;0.82;;
57047;SDS011;42934;54.294;18.598;2022-08-30T07:07:02;3.25;;;1.02;;
57047;SDS011;42934;54.294;18.598;2022-08-30T07:09:31;2.40;;;0.80;;
57047;SDS011;42934;54.294;18.598;2022-08-30T07:14:33;3.95;;;0.93;;
57047;SDS011;42934;54.294;18.598;2022-08-30T07:17:14;2.47;;;0.60;;
57047;SDS011;42934;54.294;18.598;2022-08-30T07:23:32;3.40;;;0.90;;
57047;SDS011;42934;54.294;18.598;2022-08-30T07:26:03;2.38;;;0.93;;
57047;SDS011;42934;54.294;18.598;2022-08-30T07:28:35;3.60;;;0.70;;
57047;SDS011;42934;54.294;18.598;2022-08-30T07:31:07;2.22;;;0.65;;
57047;SDS011;42934;54.294;18.598;2022-08-30T07:33:37;1.85;;;0.68;;
57047;SDS011;42934;54.294;18.598;2022-08-30T07:36:07;2.15;;;0.80;;
57047;SDS011;42934;54.294;18.598;2022-08-30T07:38:37;1.85;;;0.80;;
57047;SDS011;42934;54.294;18.598;2022-08-30T07:41:07;2.08;;;0.68;;
57047;SDS011;42934;54.294;18.598;2022-08-30T07:43:36;2.63;;;0.70;;
57047;SDS011;42934;54.294;18.598;2022-08-30T07:46:07;4.38;;;1.00;;
57047;SDS011;42934;54.294;18.598;2022-08-30T07:48:36;2.78;;;0.60;;
57047;SDS011;42934;54.294;18.598;2022-08-30T07:51:11;1.50;;;0.63;;
57047;SDS011;42934;54.294;18.598;2022-08-30T07:53:43;1.88;;;0.70;;
57047;SDS011;42934;54.294;18.598;2022-08-30T07:56:12;2.08;;;0.73;;
57047;SDS011;42934;54.294;18.598;2022-08-30T07:58:42;3.72;;;0.57;;
57047;SDS011;42934;54.294;18.598;2022-08-30T08:01:13;4.40;;;0.70;;
57047;SDS011;42934;54.294;18.598;2022-08-30T08:03:45;4.43;;;0.70;;
57047;SDS011;42934;54.294;18.598;2022-08-30T08:06:17;1.13;;;0.52;;
57047;SDS011;42934;54.294;18.598;2022-08-30T08:08:49;1.48;;;0.47;;
57047;SDS011;42934;54.294;18.598;2022-08-30T08:11:21;2.33;;;0.60;;
57047;SDS011;42934;54.294;18.598;2022-08-30T08:13:57;2.65;;;0.60;;
57047;SDS011;42934;54.294;18.598;2022-08-30T08:16:29;4.95;;;0.63;;
57047;SDS011;42934;54.294;18.598;2022-08-30T08:19:02;4.60;;;0.70;;
57047;SDS011;42934;54.294;18.598;2022-08-30T08:21:35;1.90;;;0.65;;
57047;SDS011;42934;54.294;18.598;2022-08-30T08:24:05;2.55;;;0.55;;
57047;SDS011;42934;54.294;18.598;2022-08-30T08:26:35;6.25;;;0.90;;
57047;SDS011;42934;54.294;18.598;2022-08-30T08:29:11;1.20;;;0.45;;
57047;SDS011;42934;54.294;18.598;2022-08-30T08:31:42;1.10;;;0.55;;
57047;SDS011;42934;54.294;18.598;2022-08-30T08:34:13;1.65;;;0.60;;
57047;SDS011;42934;54.294;18.598;2022-08-30T08:36:45;2.33;;;0.88;;
57047;SDS011;42934;54.294;18.598;2022-08-30T08:39:15;1.73;;;0.60;;
57047;SDS011;42934;54.294;18.598;2022-08-30T08:44:23;4.22;;;0.70;;
57047;SDS011;42934;54.294;18.598;2022-08-30T08:47:06;2.83;;;0.70;;
57047;SDS011;42934;54.294;18.598;2022-08-30T08:49:43;2.33;;;0.65;;
57047;SDS011;42934;54.294;18.598;2022-08-30T08:52:17;2.20;;;0.80;;
57047;SDS011;42934;54.294;18.598;2022-08-30T08:55:10;2.38;;;0.80;;
57047;SDS011;42934;54.294;18.598;2022-08-30T08:57:41;3.17;;;0.98;;
57047;SDS011;42934;54.294;18.598;2022-08-30T09:00:11;1.98;;;0.70;;
57047;SDS011;42934;54.294;18.598;2022-08-30T09:02:44;2.38;;;0.70;;
57047;SDS011;42934;54.294;18.598;2022-08-30T09:05:22;1.63;;;0.73;;
57047;SDS011;42934;54.294;18.598;2022-08-30T09:07:57;1.63;;;0.70;;
57047;SDS011;42934;54.294;18.598;2022-08-30T09:10:34;2.58;;;0.80;;
57047;SDS011;42934;54.294;18.598;2022-08-30T09:13:16;2.88;;;0.90;;
57047;SDS011;42934;54.294;18.598;2022-08-30T09:15:49;3.33;;;0.80;;
57047;SDS011;42934;54.294;18.598;2022-08-30T09:18:38;2.05;;;0.80;;
57047;SDS011;42934;54.294;18.598;2022-08-30T09:21:11;1.88;;;0.80;;
57047;SDS011;42934;54.294;18.598;2022-08-30T09:23:48;2.85;;;1.08;;
57047;SDS011;42934;54.294;18.598;2022-08-30T09:26:27;1.75;;;0.93;;
57047;SDS011;42934;54.294;18.598;2022-08-30T09:28:57;1.27;;;0.70;;
57047;SDS011;42934;54.294;18.598;2022-08-30T09:31:28;3.20;;;0.80;;
57047;SDS011;42934;54.294;18.598;2022-08-30T09:34:01;1.27;;;0.73;;
57047;SDS011;42934;54.294;18.598;2022-08-30T09:36:33;1.65;;;0.90;;
57047;SDS011;42934;54.294;18.598;2022-08-30T09:39:14;1.65;;;0.80;;
57047;SDS011;42934;54.294;18.598;2022-08-30T09:41:47;2.45;;;0.90;;
57047;SDS011;42934;54.294;18.598;2022-08-30T09:44:17;2.33;;;0.80;;
57047;SDS011;42934;54.294;18.598;2022-08-30T09:46:50;3.70;;;1.15;;
57047;SDS011;42934;54.294;18.598;2022-08-30T09:49:30;1.50;;;0.73;;
57047;SDS011;42934;54.294;18.598;2022-08-30T09:52:14;1.60;;;0.88;;
57047;SDS011;42934;54.294;18.598;2022-08-30T09:54:59;2.15;;;0.80;;
57047;SDS011;42934;54.294;18.598;2022-08-30T09:57:42;1.38;;;0.73;;
57047;SDS011;42934;54.294;18.598;2022-08-30T10:00:20;2.97;;;1.30;;
57047;SDS011;42934;54.294;18.598;2022-08-30T10:02:56;2.25;;;0.80;;
57047;SDS011;42934;54.294;18.598;2022-08-30T10:06:05;2.08;;;0.90;;
57047;SDS011;42934;54.294;18.598;2022-08-30T10:08:44;3.25;;;1.20;;
57047;SDS011;42934;54.294;18.598;2022-08-30T10:11:27;2.22;;;0.80;;
57047;SDS011;42934;54.294;18.598;2022-08-30T10:17:16;1.63;;;1.00;;
57047;SDS011;42934;54.294;18.598;2022-08-30T10:20:02;3.88;;;0.85;;
57047;SDS011;42934;54.294;18.598;2022-08-30T10:22:49;2.35;;;0.70;;
57047;SDS011;42934;54.294;18.598;2022-08-30T10:25:25;1.45;;;0.90;;
57047;SDS011;42934;54.294;18.598;2022-08-30T10:28:01;2.85;;;0.95;;
57047;SDS011;42934;54.294;18.598;2022-08-30T10:30:35;3.50;;;1.08;;
57047;SDS011;42934;54.294;18.598;2022-08-30T10:33:08;2.58;;;0.70;;
57047;SDS011;42934;54.294;18.598;2022-08-30T10:35:44;4.55;;;0.98;;
57047;SDS011;42934;54.294;18.598;2022-08-30T10:38:21;1.77;;;0.77;;
57047;SDS011;42934;54.294;18.598;2022-08-30T10:40:56;2.25;;;0.88;;
57047;SDS011;42934;54.294;18.598;2022-08-30T10:43:46;2.35;;;1.10;;
57047;SDS011;42934;54.294;18.598;2022-08-30T10:46:25;1.38;;;0.82;;
57047;SDS011;42934;54.294;18.598;2022-08-30T10:49:01;2.78;;;0.98;;
57047;SDS011;42934;54.294;18.598;2022-08-30T10:51:35;2.20;;;1.00;;
57047;SDS011;42934;54.294;18.598;2022-08-30T10:54:14;2.80;;;1.02;;
57047;SDS011;42934;54.294;18.598;2022-08-30T10:56:46;3.60;;;1.15;;
57047;SDS011;42934;54.294;18.598;2022-08-30T10:59:18;3.05;;;1.02;;
57047;SDS011;42934;54.294;18.598;2022-08-30T11:04:51;2.85;;;0.90;;
57047;SDS011;42934;54.294;18.598;2022-08-30T11:07:40;5.72;;;0.90;;
57047;SDS011;42934;54.294;18.598;2022-08-30T11:10:28;3.03;;;1.00;;
57047;SDS011;42934;54.294;18.598;2022-08-30T11:13:16;1.75;;;1.05;;
57047;SDS011;42934;54.294;18.598;2022-08-30T11:15:51;5.00;;;1.10;;
57047;SDS011;42934;54.294;18.598;2022-08-30T11:18:24;1.10;;;0.90;;
57047;SDS011;42934;54.294;18.598;2022-08-30T11:24:05;2.55;;;0.77;;
57047;SDS011;42934;54.294;18.598;2022-08-30T11:26:52;3.92;;;0.80;;
57047;SDS011;42934;54.294;18.598;2022-08-30T11:32:19;3.67;;;0.98;;
57047;SDS011;42934;54.294;18.598;2022-08-30T11:38:18;1.30;;;0.90;;
57047;SDS011;42934;54.294;18.598;2022-08-30T11:41:08;2.67;;;0.90;;
57047;SDS011;42934;54.294;18.598;2022-08-30T11:43:49;3.80;;;0.90;;
57047;SDS011;42934;54.294;18.598;2022-08-30T11:46:36;2.42;;;0.70;;
57047;SDS011;42934;54.294;18.598;2022-08-30T11:52:20;3.42;;;0.90;;
57047;SDS011;42934;54.294;18.598;2022-08-30T11:55:25;1.92;;;0.75;;
57047;SDS011;42934;54.294;18.598;2022-08-30T11:58:18;3.45;;;0.80;;
57047;SDS011;42934;54.294;18.598;2022-08-30T12:01:15;2.20;;;0.90;;
57047;SDS011;42934;54.294;18.598;2022-08-30T12:04:25;4.43;;;0.93;;
57047;SDS011;42934;54.294;18.598;2022-08-30T12:07:04;1.98;;;0.75;;
57047;SDS011;42934;54.294;18.598;2022-08-30T12:12:49;2.05;;;0.70;;
57047;SDS011;42934;54.294;18.598;2022-08-30T12:18:42;5.80;;;0.90;;
57047;SDS011;42934;54.294;18.598;2022-08-30T12:21:22;3.83;;;0.90;;
57047;SDS011;42934;54.294;18.598;2022-08-30T12:23:58;3.78;;;1.00;;
57047;SDS011;42934;54.294;18.598;2022-08-30T12:26:38;3.60;;;1.17;;
57047;SDS011;42934;54.294;18.598;2022-08-30T12:29:33;2.88;;;1.00;;
57047;SDS011;42934;54.294;18.598;2022-08-30T12:32:03;5.95;;;0.85;;
57047;SDS011;42934;54.294;18.598;2022-08-30T12:34:50;1.92;;;0.65;;
57047;SDS011;42934;54.294;18.598;2022-08-30T12:44:00;3.03;;;0.90;;
57047;SDS011;42934;54.294;18.598;2022-08-30T12:46:32;2.35;;;0.80;;
57047;SDS011;42934;54.294;18.598;2022-08-30T12:49:06;4.60;;;0.90;;
57047;SDS011;42934;54.294;18.598;2022-08-30T12:51:41;3.03;;;0.90;;
57047;SDS011;42934;54.294;18.598;2022-08-30T12:54:33;2.15;;;0.90;;
57047;SDS011;42934;54.294;18.598;2022-08-30T12:57:11;4.35;;;1.00;;
57047;SDS011;42934;54.294;18.598;2022-08-30T13:00:01;2.27;;;0.87;;
57047;SDS011;42934;54.294;18.598;2022-08-30T13:02:41;1.77;;;0.75;;
57047;SDS011;42934;54.294;18.598;2022-08-30T13:05:29;1.08;;;0.70;;
57047;SDS011;42934;54.294;18.598;2022-08-30T13:08:17;2.95;;;0.73;;
57047;SDS011;42934;54.294;18.598;2022-08-30T13:16:48;3.13;;;0.90;;
57047;SDS011;42934;54.294;18.598;2022-08-30T13:19:24;4.65;;;1.00;;
57047;SDS011;42934;54.294;18.598;2022-08-30T13:21:59;1.67;;;0.75;;
57047;SDS011;42934;54.294;18.598;2022-08-30T13:24:31;5.63;;;0.80;;
57047;SDS011;42934;54.294;18.598;2022-08-30T13:27:02;3.22;;;1.00;;
57047;SDS011;42934;54.294;18.598;2022-08-30T13:29:38;2.75;;;1.00;;
57047;SDS011;42934;54.294;18.598;2022-08-30T13:32:08;3.92;;;1.20;;
57047;SDS011;42934;54.294;18.598;2022-08-30T13:34:39;4.28;;;0.80;;
57047;SDS011;42934;54.294;18.598;2022-08-30T13:40:03;5.18;;;0.90;;
57047;SDS011;42934;54.294;18.598;2022-08-30T13:42:35;3.70;;;0.85;;
57047;SDS011;42934;54.294;18.598;2022-08-30T13:45:08;3.53;;;1.23;;
57047;SDS011;42934;54.294;18.598;2022-08-30T13:48:10;2.20;;;0.70;;
57047;SDS011;42934;54.294;18.598;2022-08-30T13:50:50;4.45;;;1.00;;
57047;SDS011;42934;54.294;18.598;2022-08-30T13:53:30;4.30;;;1.10;;
57047;SDS011;42934;54.294;18.598;2022-08-30T13:56:22;3.78;;;1.02;;
57047;SDS011;42934;54.294;18.598;2022-08-30T13:58:57;2.95;;;0.93;;
57047;SDS011;42934;54.294;18.598;2022-08-30T14:01:28;1.67;;;1.00;;
57047;SDS011;42934;54.294;18.598;2022-08-30T14:04:18;3.10;;;0.90;;
57047;SDS011;42934;54.294;18.598;2022-08-30T14:06:47;2.10;;;0.80;;
57047;SDS011;42934;54.294;18.598;2022-08-30T14:09:41;1.65;;;0.98;;
57047;SDS011;42934;54.294;18.598;2022-08-30T14:12:16;6.80;;;1.17;;
57047;SDS011;42934;54.294;18.598;2022-08-30T14:15:06;2.08;;;1.00;;
57047;SDS011;42934;54.294;18.598;2022-08-30T14:20:06;3.60;;;1.10;;
57047;SDS011;42934;54.294;18.598;2022-08-30T14:22:43;4.60;;;1.00;;
57047;SDS011;42934;54.294;18.598;2022-08-30T14:25:13;6.65;;;1.30;;
57047;SDS011;42934;54.294;18.598;2022-08-30T14:27:44;4.00;;;1.23;;
57047;SDS011;42934;54.294;18.598;2022-08-30T14:30:13;2.13;;;0.93;;
57047;SDS011;42934;54.294;18.598;2022-08-30T14:32:46;2.80;;;1.15;;
57047;SDS011;42934;54.294;18.598;2022-08-30T14:35:16;2.55;;;1.02;;
57047;SDS011;42934;54.294;18.598;2022-08-30T14:37:47;4.60;;;1.08;;
57047;SDS011;42934;54.294;18.598;2022-08-30T14:40:18;1.73;;;0.70;;
57047;SDS011;42934;54.294;18.598;2022-08-30T14:42:49;3.00;;;0.80;;
57047;SDS011;42934;54.294;18.598;2022-08-30T14:45:18;4.93;;;1.08;;
57047;SDS011;42934;54.294;18.598;2022-08-30T14:50:24;6.30;;;1.35;;
57047;SDS011;42934;54.294;18.598;2022-08-30T14:53:23;2.25;;;0.80;;
57047;SDS011;42934;54.294;18.598;2022-08-30T14:55:54;2.95;;;0.63;;
57047;SDS011;42934;54.294;18.598;2022-08-30T14:58:25;2.38;;;0.80;;
57047;SDS011;42934;54.294;18.598;2022-08-30T15:00:54;1.40;;;0.65;;
57047;SDS011;42934;54.294;18.598;2022-08-30T15:03:24;2.03;;;0.90;;
57047;SDS011;42934;54.294;18.598;2022-08-30T15:05:53;4.90;;;0.85;;
57047;SDS011;42934;54.294;18.598;2022-08-30T15:08:22;4.20;;;0.73;;
57047;SDS011;42934;54.294;18.598;2022-08-30T15:10:52;1.67;;;0.82;;
57047;SDS011;42934;54.294;18.598;2022-08-30T15:13:21;3.50;;;0.90;;
57047;SDS011;42934;54.294;18.598;2022-08-30T15:15:51;5.93;;;0.80;;
57047;SDS011;42934;54.294;18.598;2022-08-30T15:18:22;2.35;;;0.88;;
57047;SDS011;42934;54.294;18.598;2022-08-30T15:20:51;1.83;;;0.55;;
57047;SDS011;42934;54.294;18.598;2022-08-30T15:23:21;3.67;;;0.70;;
57047;SDS011;42934;54.294;18.598;2022-08-30T15:25:51;2.03;;;0.68;;
57047;SDS011;42934;54.294;18.598;2022-08-30T15:28:20;2.08;;;0.82;;
57047;SDS011;42934;54.294;18.598;2022-08-30T15:30:49;2.85;;;0.88;;
57047;SDS011;42934;54.294;18.598;2022-08-30T15:33:21;3.95;;;0.88;;
57047;SDS011;42934;54.294;18.598;2022-08-30T15:35:51;3.17;;;1.00;;
57047;SDS011;42934;54.294;18.598;2022-08-30T15:38:20;2.50;;;1.00;;
57047;SDS011;42934;54.294;18.598;2022-08-30T15:40:49;2.00;;;0.70;;
57047;SDS011;42934;54.294;18.598;2022-08-30T15:43:19;3.97;;;1.08;;
57047;SDS011;42934;54.294;18.598;2022-08-30T15:45:48;4.18;;;0.82;;
57047;SDS011;42934;54.294;18.598;2022-08-30T15:48:20;1.58;;;0.73;;
57047;SDS011;42934;54.294;18.598;2022-08-30T15:50:55;4.25;;;1.00;;
57047;SDS011;42934;54.294;18.598;2022-08-30T15:53:24;3.25;;;0.80;;
57047;SDS011;42934;54.294;18.598;2022-08-30T15:55:54;1.20;;;0.70;;
57047;SDS011;42934;54.294;18.598;2022-08-30T15:58:23;3.10;;;0.88;;
57047;SDS011;42934;54.294;18.598;2022-08-30T16:00:53;4.90;;;0.80;;
57047;SDS011;42934;54.294;18.598;2022-08-30T16:03:25;3.50;;;0.73;;
57047;SDS011;42934;54.294;18.598;2022-08-30T16:05:56;3.13;;;1.25;;
57047;SDS011;42934;54.294;18.598;2022-08-30T16:08:27;1.80;;;0.80;;
57047;SDS011;42934;54.294;18.598;2022-08-30T16:10:57;2.95;;;0.90;;